Time;durP1;ratioP1;P1;durP2;ratioP2;P2;SDS_P1;SDS_P2;PMS_P1;PMS_P2;Temp;Humidity;BMP_temperature;BMP_pressure;BME280_temperature;BME280_humidity;BME280_pressure;Samples;Min_cycle;Max_cycle;Signal;HPM_P1;HPM_P2
2021/09/27 00:02:42;;;;;;;5.70;3.08;;;;;;;19.30;49.44;100773.30;2369898;83;25683;-79
2021/09/27 00:06:05;;;;;;;4.97;3.25;;;;;;;19.25;49.43;100765.41;2371045;82;25659;-76
2021/09/27 00:09:32;;;;;;;5.72;2.87;;;;;;;19.21;49.41;100765.00;2343666;83;26368;-76
2021/09/27 00:12:55;;;;;;;4.70;2.60;;;;;;;19.17;49.39;100765.00;2369992;83;25834;-79
2021/09/27 00:16:17;;;;;;;4.72;3.08;;;;;;;19.14;49.38;100759.77;2371466;83;25658;-76
2021/09/27 00:19:38;;;;;;;6.70;3.15;;;;;;;19.10;49.33;100757.55;2370272;83;25683;-75
2021/09/27 00:23:04;;;;;;;5.05;2.90;;;;;;;19.07;49.31;100758.91;2366990;83;25707;-76
2021/09/27 00:26:27;;;;;;;4.87;2.42;;;;;;;19.05;49.31;100759.36;2366630;83;26175;-76
2021/09/27 00:29:48;;;;;;;6.03;2.45;;;;;;;19.02;49.28;100752.76;2368289;83;25207;-76
2021/09/27 00:33:13;;;;;;;6.50;2.93;;;;;;;18.98;49.25;100757.19;2365521;83;29928;-76
2021/09/27 00:36:34;;;;;;;3.47;2.15;;;;;;;18.95;49.26;100746.63;2371425;83;25682;-75
2021/09/27 00:39:55;;;;;;;4.85;2.27;;;;;;;18.93;49.23;100754.99;2373182;83;25663;-75
2021/09/27 00:43:17;;;;;;;3.55;2.30;;;;;;;18.90;49.25;100759.00;2371176;83;25671;-78
2021/09/27 00:46:41;;;;;;;3.25;2.00;;;;;;;18.87;49.21;100766.48;2373321;83;26207;-77
2021/09/27 00:50:06;;;;;;;4.03;2.50;;;;;;;18.84;49.21;100751.09;2373365;83;25502;-76
2021/09/27 00:53:38;;;;;;;5.22;2.80;;;;;;;18.80;49.24;100743.62;2375107;83;25584;-74
2021/09/27 00:57:16;;;;;;;8.55;2.15;;;;;;;18.78;49.23;100747.16;2377314;82;25662;-76
2021/09/27 01:00:41;;;;;;;3.90;2.20;;;;;;;18.75;49.26;100742.75;2376804;83;25742;-74
2021/09/27 01:04:03;;;;;;;3.95;2.33;;;;;;;18.73;49.25;100742.31;2377562;83;25937;-76
2021/09/27 01:08:11;;;;;;;3.47;2.27;;;;;;;18.69;49.27;100749.79;2376868;83;26197;-75
2021/09/27 01:12:13;;;;;;;4.37;2.50;;;;;;;18.64;49.28;100748.05;2377197;81;25512;-74
2021/09/27 01:16:10;;;;;;;3.25;1.87;;;;;;;18.59;49.28;100737.05;2377666;83;25615;-77
2021/09/27 01:20:13;;;;;;;4.40;2.50;;;;;;;18.57;49.29;100737.08;2375492;83;25880;-75
2021/09/27 01:24:07;;;;;;;3.58;2.27;;;;;;;18.53;49.28;100738.42;2376710;83;25629;-77
2021/09/27 01:27:46;;;;;;;3.42;2.25;;;;;;;18.50;49.31;100739.75;2377279;83;25718;-76
2021/09/27 01:32:03;;;;;;;3.35;2.08;;;;;;;18.45;49.33;100738.87;2376142;83;25629;-75
2021/09/27 01:36:02;;;;;;;3.22;1.70;;;;;;;18.41;49.36;100740.20;2377101;83;25669;-75
2021/09/27 01:39:31;;;;;;;2.80;1.77;;;;;;;18.38;49.39;100749.44;2377410;83;25193;-77
2021/09/27 01:43:12;;;;;;;;;;;;;;;18.34;49.44;100749.02;2377969;83;25642;-76
2021/09/27 01:47:02;;;;;;;2.87;1.62;;;;;;;18.35;49.46;100748.57;2376590;83;25648;-76
2021/09/27 01:50:31;;;;;;;5.17;2.30;;;;;;;18.31;49.47;100758.26;2374696;82;25754;-75
2021/09/27 01:54:14;;;;;;;4.33;2.67;;;;;;;18.28;49.54;100747.70;2371480;83;25749;-75
2021/09/27 01:57:47;;;;;;;4.70;1.80;;;;;;;18.26;49.55;100753.45;2365239;83;25547;-75
2021/09/27 02:01:15;;;;;;;4.25;1.82;;;;;;;18.23;49.56;100741.58;2369852;83;25587;-77
2021/09/27 02:05:05;;;;;;;6.78;1.62;;;;;;;18.23;49.59;100742.02;2370615;83;25596;-75
2021/09/27 02:08:35;;;;;;;2.75;2.15;;;;;;;18.19;49.65;100741.15;2366196;83;25957;-75
2021/09/27 02:12:10;;;;;;;3.17;2.12;;;;;;;18.16;49.67;100751.27;2293363;85;25692;-79
2021/09/27 02:15:37;;;;;;;5.00;2.52;;;;;;;18.13;49.70;100752.58;2290985;86;25263;-78
2021/09/27 02:19:31;;;;;;;4.17;1.82;;;;;;;18.10;49.72;100746.44;2294018;85;25735;-79
2021/09/27 02:23:10;;;;;;;5.30;2.00;;;;;;;18.09;49.74;100757.44;2212169;89;25856;-75
2021/09/27 02:26:31;;;;;;;3.25;1.77;;;;;;;18.06;49.78;100753.48;2212144;87;25845;-76
2021/09/27 02:29:52;;;;;;;4.28;1.90;;;;;;;18.04;49.82;100753.03;2225754;87;26063;-76
2021/09/27 02:33:30;;;;;;;2.58;1.62;;;;;;;18.02;49.88;100753.05;2241094;86;25849;-81
2021/09/27 02:37:06;;;;;;;3.80;1.85;;;;;;;18.01;49.92;100755.67;2225499;88;25727;-80
2021/09/27 02:40:38;;;;;;;3.58;2.10;;;;;;;18.00;49.90;100755.23;2240587;88;25828;-75
2021/09/27 02:44:04;;;;;;;6.17;1.80;;;;;;;17.99;49.92;100753.46;2240403;86;25642;-75
2021/09/27 02:47:37;;;;;;;2.12;1.60;;;;;;;17.97;49.93;100753.92;2230394;85;25262;-75
2021/09/27 02:50:59;;;;;;;2.55;1.70;;;;;;;17.94;49.93;100760.95;2329807;83;25767;-77
2021/09/27 02:54:34;;;;;;;3.20;1.70;;;;;;;17.92;49.98;100762.73;2304235;84;25744;-76
2021/09/27 02:58:01;;;;;;;3.30;1.77;;;;;;;17.88;49.98;100754.80;2329767;81;26173;-75
2021/09/27 03:01:57;;;;;;;2.25;1.40;;;;;;;17.87;50.00;100756.55;2426968;81;25159;-78
2021/09/27 03:05:50;;;;;;;3.17;1.67;;;;;;;17.84;50.03;100753.91;2426020;81;25626;-75
2021/09/27 03:09:46;;;;;;;2.95;1.52;;;;;;;17.80;50.06;100746.02;2426110;80;25659;-76
2021/09/27 03:13:33;;;;;;;3.37;2.30;;;;;;;17.78;50.09;100756.99;2326170;85;25781;-75
2021/09/27 03:17:24;;;;;;;2.77;1.70;;;;;;;17.75;50.12;100753.00;2325230;84;25761;-76
2021/09/27 03:21:04;;;;;;;;;;;;;;;17.71;50.18;100752.12;2328073;84;26088;-76
2021/09/27 03:24:53;;;;;;;2.47;1.42;;;;;;;17.69;50.18;100757.41;2325738;84;25799;-79
2021/09/27 03:28:44;;;;;;;2.50;1.77;;;;;;;17.68;50.20;100760.03;2325442;84;25692;-78
2021/09/27 03:32:31;;;;;;;2.22;1.72;;;;;;;17.62;50.24;100758.73;2325226;85;25620;-77
2021/09/27 03:36:38;;;;;;;3.15;2.05;;;;;;;17.59;50.29;100762.68;2324520;84;25809;-79
2021/09/27 03:40:17;;;;;;;4.17;1.85;;;;;;;17.58;50.35;100754.31;2326237;84;25685;-76
2021/09/27 03:43:57;;;;;;;3.40;2.05;;;;;;;17.56;50.39;100756.08;2332580;84;26246;-77
2021/09/27 03:47:32;;;;;;;4.12;2.12;;;;;;;17.54;50.43;100749.92;2378228;82;25762;-77
2021/09/27 03:50:59;;;;;;;3.55;2.27;;;;;;;17.52;50.45;100753.88;2408416;81;25697;-75
2021/09/27 03:54:38;;;;;;;4.58;2.12;;;;;;;17.50;50.50;100749.03;2411897;82;25788;-76
2021/09/27 03:58:25;;;;;;;4.30;2.15;;;;;;;17.47;50.54;100751.67;2329194;84;26514;-78
2021/09/27 04:02:32;;;;;;;2.72;1.65;;;;;;;17.44;50.58;100743.30;2328129;84;25714;-74
2021/09/27 04:06:23;;;;;;;4.28;2.45;;;;;;;17.43;50.62;100740.24;2328423;84;25718;-75
2021/09/27 04:10:05;;;;;;;2.50;2.02;;;;;;;17.41;50.62;100735.43;2329509;84;25659;-78
2021/09/27 04:13:40;;;;;;;5.08;1.90;;;;;;;17.38;50.70;100733.20;2292047;86;26333;-79
2021/09/27 04:17:43;;;;;;;3.05;1.90;;;;;;;17.36;50.71;100733.20;2265141;84;26265;-79
2021/09/27 04:21:25;;;;;;;3.15;2.40;;;;;;;17.34;50.76;100734.08;2270111;87;25843;-79
2021/09/27 04:25:00;;;;;;;3.45;1.77;;;;;;;17.32;50.78;100736.72;2146864;91;25792;-77
2021/09/27 04:28:58;;;;;;;5.47;2.47;;;;;;;17.29;50.82;100738.03;2099624;92;25752;-75
2021/09/27 04:33:29;;;;;;;5.67;1.98;;;;;;;17.28;50.87;100738.01;2116158;92;25793;-80
2021/09/27 04:36:54;;;;;;;2.42;1.70;;;;;;;17.27;50.92;100738.89;2096475;92;25908;-77
2021/09/27 04:40:19;;;;;;;3.00;2.25;;;;;;;17.25;50.95;100736.27;2112369;92;25798;-74
2021/09/27 04:44:02;;;;;;;10.72;2.55;;;;;;;17.25;50.97;100736.72;2118108;92;25980;-75
2021/09/27 04:47:57;;;;;;;4.42;2.30;;;;;;;17.26;51.05;100740.66;2071611;93;26027;-75
2021/09/27 04:51:39;;;;;;;7.30;1.82;;;;;;;17.27;51.04;100743.73;2145651;90;25387;-75
2021/09/27 04:55:18;;;;;;;4.50;1.95;;;;;;;17.26;51.06;100744.61;2156953;91;25816;-74
2021/09/27 04:58:57;;;;;;;8.63;2.13;;;;;;;17.26;51.12;100748.56;2157376;91;25686;-75
2021/09/27 05:02:58;;;;;;;3.27;1.98;;;;;;;17.27;51.14;100756.90;2176173;90;25913;-82
2021/09/27 05:06:40;;;;;;;6.33;2.37;;;;;;;17.27;51.20;100756.90;2174049;90;25824;-76
2021/09/27 05:10:27;;;;;;;7.22;1.82;;;;;;;17.27;51.25;100749.00;2277372;85;25774;-74
2021/09/27 05:14:19;;;;;;;4.12;1.92;;;;;;;17.27;51.30;100756.90;2251767;87;25871;-76
2021/09/27 05:18:18;;;;;;;6.58;2.47;;;;;;;17.29;51.34;100754.28;2288833;83;25742;-74
2021/09/27 05:21:53;;;;;;;5.62;2.12;;;;;;;17.30;51.41;100745.50;2246763;87;26419;-76
2021/09/27 05:25:49;;;;;;;5.62;1.95;;;;;;;17.32;51.46;100747.27;2288221;86;25835;-76
2021/09/27 05:29:42;;;;;;;3.17;2.17;;;;;;;17.32;51.50;100738.48;2249245;87;25733;-75
2021/09/27 05:33:24;;;;;;;5.33;2.30;;;;;;;17.36;51.57;100742.88;2288714;86;25745;-74
2021/09/27 05:36:57;;;;;;;4.60;2.67;;;;;;;17.37;51.55;100753.41;2309561;83;25675;-76
2021/09/27 05:40:26;;;;;;;8.00;2.37;;;;;;;17.40;51.60;100749.45;2339281;84;25349;-74
2021/09/27 05:43:56;;;;;;;3.72;1.87;;;;;;;17.42;51.60;100750.35;2340770;84;25875;-80
2021/09/27 05:47:43;;;;;;;5.45;2.72;;;;;;;17.44;51.62;100756.93;2337946;84;25646;-75
2021/09/27 05:51:16;;;;;;;3.95;2.40;;;;;;;17.47;51.65;100757.81;2302401;84;25669;-77
2021/09/27 05:55:18;;;;;;;4.08;2.17;;;;;;;17.52;51.64;100759.60;2298993;85;25661;-75
2021/09/27 05:59:02;;;;;;;5.35;2.80;;;;;;;17.54;51.65;100769.24;2299196;84;25618;-75
2021/09/27 06:02:56;;;;;;;7.20;2.15;;;;;;;17.57;51.66;100776.28;2298953;84;26391;-79
2021/09/27 06:06:41;;;;;;;5.35;2.72;;;;;;;17.59;51.74;100771.47;2298714;84;25669;-75
2021/09/27 06:10:30;;;;;;;3.33;1.67;;;;;;;17.63;51.74;100772.34;2297182;84;25721;-75
2021/09/27 06:13:53;;;;;;;5.78;2.35;;;;;;;17.67;51.71;100768.83;2297797;84;25726;-78
2021/09/27 06:17:43;;;;;;;3.02;1.72;;;;;;;17.71;51.72;100782.00;2298953;85;25450;-75
2021/09/27 06:21:38;;;;;;;5.55;2.20;;;;;;;17.74;51.71;100778.94;2294631;84;25666;-75
2021/09/27 06:25:20;;;;;;;5.83;2.35;;;;;;;17.78;51.72;100778.09;2302836;84;25764;-75
2021/09/27 06:29:05;;;;;;;3.10;1.80;;;;;;;17.79;51.76;100777.23;2294289;85;25844;-80
2021/09/27 06:33:08;;;;;;;4.87;1.65;;;;;;;17.85;51.81;100772.84;2282003;86;25668;-76
2021/09/27 06:36:33;;;;;;;4.55;2.25;;;;;;;17.92;51.93;100771.95;2277801;86;26575;-74
2021/09/27 06:39:55;;;;;;;3.52;2.42;;;;;;;18.02;51.94;100774.56;2253972;86;25793;-74
2021/09/27 06:43:21;;;;;;;4.42;1.80;;;;;;;18.09;52.04;100771.95;2229432;88;25782;-75
2021/09/27 06:46:43;;;;;;;15.93;2.05;;;;;;;18.18;52.47;100775.00;2237018;88;26073;-75
2021/09/27 06:50:07;;;;;;;5.75;1.90;;;;;;;18.24;52.55;100771.03;2229089;88;25615;-75
2021/09/27 06:53:30;;;;;;;8.80;2.08;;;;;;;18.33;52.93;100776.31;2234191;88;25744;-74
2021/09/27 06:56:51;;;;;;;3.20;2.00;;;;;;;18.41;53.09;100769.23;2236104;88;26093;-76
2021/09/27 07:00:14;;;;;;;6.70;1.92;;;;;;;18.49;53.14;100767.89;2234746;88;31310;-75
2021/09/27 07:03:35;;;;;;;3.58;2.10;;;;;;;18.52;53.32;100768.33;2235956;88;25812;-77
2021/09/27 07:06:57;;;;;;;3.45;1.87;;;;;;;18.62;53.50;100771.38;2372158;82;31029;-76
2021/09/27 07:10:25;;;;;;;5.42;2.33;;;;;;;18.70;53.38;100768.29;2385191;81;25656;-75
2021/09/27 07:13:46;;;;;;;4.47;1.45;;;;;;;18.78;53.36;100766.96;2384987;82;25681;-75
2021/09/27 07:17:07;;;;;;;3.67;1.90;;;;;;;18.92;53.39;100767.78;2385075;82;25232;-77
2021/09/27 07:20:28;;;;;;;5.42;2.05;;;;;;;21.32;52.32;100767.78;2380929;82;25788;-79
2021/09/27 07:23:49;;;;;;;3.35;2.30;;;;;;;24.52;48.55;100784.28;2384777;82;25386;-76
2021/09/27 07:27:10;;;;;;;5.37;2.27;;;;;;;27.19;44.87;100781.28;2386014;82;25665;-75
2021/09/27 07:30:32;;;;;;;3.40;2.37;;;;;;;29.46;40.78;100794.72;2383186;82;25724;-81
2021/09/27 07:33:54;;;;;;;2.52;1.85;;;;;;;31.43;37.69;100799.73;2386330;82;25763;-78
2021/09/27 07:37:15;;;;;;;3.95;2.27;;;;;;;33.26;34.84;100805.31;2383995;81;25587;-78
2021/09/27 07:40:38;;;;;;;4.30;1.80;;;;;;;34.86;32.46;100810.29;2383518;82;25573;-80
2021/09/27 07:43:59;;;;;;;3.27;1.70;;;;;;;36.24;30.54;100808.73;2384637;82;25748;-81
2021/09/27 07:47:20;;;;;;;5.65;1.98;;;;;;;37.46;28.97;100813.93;2381659;81;25621;-77
2021/09/27 07:50:46;;;;;;;2.52;1.75;;;;;;;38.45;27.59;100822.88;2387291;81;25637;-76
2021/09/27 07:54:15;;;;;;;2.67;1.50;;;;;;;39.51;26.65;100829.33;2373171;81;25671;-77
2021/09/27 07:57:36;;;;;;;2.47;1.60;;;;;;;40.54;25.54;100832.06;2372508;82;25749;-82
2021/09/27 08:00:58;;;;;;;3.33;1.42;;;;;;;41.44;24.62;100838.30;2373628;82;25638;-83
2021/09/27 08:04:19;;;;;;;6.58;1.40;;;;;;;42.24;24.05;100839.80;2372797;82;25831;-81
2021/09/27 08:07:40;;;;;;;5.37;1.47;;;;;;;42.91;23.04;100839.63;2371871;82;25633;-77
2021/09/27 08:11:02;;;;;;;6.20;1.70;;;;;;;43.64;22.29;100836.00;2369397;82;25757;-85
2021/09/27 08:14:22;;;;;;;3.65;1.47;;;;;;;44.17;20.48;100836.09;2356723;83;25634;-86
2021/09/27 08:17:46;;;;;;;4.70;1.42;;;;;;;43.34;18.91;100829.56;2368995;82;25690;-84
2021/09/27 08:21:12;;;;;;;3.58;1.70;;;;;;;42.41;18.71;100820.27;2369877;83;25688;-86
2021/09/27 08:24:33;;;;;;;3.70;1.70;;;;;;;41.86;18.51;100817.73;2369805;83;25776;-87
2021/09/27 08:27:55;;;;;;;2.75;1.67;;;;;;;41.56;18.64;100821.16;2370018;82;25486;-86
2021/09/27 08:31:30;;;;;;;2.95;1.40;;;;;;;41.28;18.38;100819.80;2369208;82;25646;-86
2021/09/27 08:34:57;;;;;;;3.65;1.57;;;;;;;41.11;18.21;100812.89;2368741;83;25648;-86
2021/09/27 08:38:25;;;;;;;2.50;1.37;;;;;;;40.28;18.17;100809.95;2363302;83;26277;-86
2021/09/27 08:42:12;;;;;;;8.20;1.22;;;;;;;39.65;18.20;100806.22;2361921;82;25622;-85
2021/09/27 08:45:36;;;;;;;2.00;1.17;;;;;;;39.34;18.54;100803.59;2351912;83;25633;-86
2021/09/27 08:49:37;;;;;;;4.37;1.10;;;;;;;39.23;18.55;100809.14;2320342;84;25573;-86
2021/09/27 08:53:21;;;;;;;1.45;1.00;;;;;;;39.23;18.79;100803.69;2322547;84;25923;-86
2021/09/27 08:57:41;;;;;;;1.92;1.05;;;;;;;38.73;18.90;100807.17;2319069;83;25760;-86
2021/09/27 09:01:30;;;;;;;1.85;0.78;;;;;;;38.62;18.78;100807.78;2328557;83;25675;-85
2021/09/27 09:05:39;;;;;;;9.93;1.00;;;;;;;37.91;18.69;100809.75;2333850;84;25737;-83
2021/09/27 09:09:15;;;;;;;3.10;0.90;;;;;;;37.71;17.84;100801.02;2312009;83;25799;-87
2021/09/27 09:12:56;;;;;;;5.22;1.22;;;;;;;36.33;19.24;100796.67;2307961;84;25729;-86
2021/09/27 09:16:30;;;;;;;4.90;1.35;;;;;;;36.21;19.80;100796.75;2323858;83;25921;-85
2021/09/27 09:19:54;;;;;;;3.17;1.07;;;;;;;36.31;20.31;100796.41;2293817;84;26035;-87
2021/09/27 09:23:39;;;;;;;2.67;1.00;;;;;;;36.46;20.06;100793.00;2287554;84;25740;-87
2021/09/27 09:27:18;;;;;;;3.45;0.80;;;;;;;36.59;19.75;100793.80;2173074;87;25654;-87
2021/09/27 09:31:14;;;;;;;3.87;1.17;;;;;;;36.80;20.22;100792.57;2172732;90;26248;-85
2021/09/27 09:34:36;;;;;;;1.85;0.98;;;;;;;37.25;20.03;100798.00;2176082;90;25680;-85
2021/09/27 09:42:36;;;;;;;2.98;1.17;;;;;;;37.31;19.32;100794.78;2099073;92;26107;-83
2021/09/27 09:46:11;;;;;;;3.87;0.75;;;;;;;36.41;18.43;100807.78;2132497;90;26110;-89
2021/09/27 09:50:21;;;;;;;3.10;1.02;;;;;;;34.88;19.57;100789.39;2112453;92;26351;-90
2021/09/27 09:53:42;;;;;;;3.80;1.00;;;;;;;34.19;20.51;100776.64;2093687;92;25890;-85
2021/09/27 09:57:24;;;;;;;9.78;1.05;;;;;;;33.94;20.99;100773.83;2101945;87;25836;-82
2021/09/27 10:01:07;;;;;;;6.05;0.78;;;;;;;33.72;21.41;100763.62;2099475;93;25799;-82
2021/09/27 10:04:44;;;;;;;1.67;0.90;;;;;;;33.44;21.20;100760.48;2104336;92;26203;-82
2021/09/27 10:08:29;;;;;;;3.67;1.17;;;;;;;32.86;21.61;100763.75;2103893;92;25696;-82
2021/09/27 10:12:19;;;;;;;6.37;1.00;;;;;;;32.51;22.33;100757.88;2100470;92;25612;-83
2021/09/27 10:15:45;;;;;;;2.20;0.75;;;;;;;33.39;21.87;100752.20;2086801;92;25763;-89
2021/09/27 10:20:01;;;;;;;4.10;0.98;;;;;;;33.87;20.97;100753.59;2104141;92;25797;-83
2021/09/27 10:23:35;;;;;;;2.30;0.80;;;;;;;32.88;21.12;100749.19;2143770;90;25710;-85
2021/09/27 10:27:06;;;;;;;5.90;1.05;;;;;;;32.90;21.65;100752.64;2148028;90;25791;-82
2021/09/27 10:31:10;;;;;;;3.27;0.82;;;;;;;32.66;21.97;100746.97;2212685;86;25604;-81
2021/09/27 10:34:36;;;;;;;2.20;1.00;;;;;;;33.06;22.20;100735.00;2253334;86;25671;-84
2021/09/27 10:38:45;;;;;;;1.85;0.75;;;;;;;33.50;22.19;100741.20;2255779;86;25562;-83
2021/09/27 10:42:52;;;;;;;2.42;1.12;;;;;;;33.52;21.86;100733.86;2258325;86;25689;-84
2021/09/27 10:50:44;;;;;;;1.57;0.90;;;;;;;34.21;21.73;100730.52;2250453;86;26019;-93
2021/09/27 10:54:47;;;;;;;12.63;1.62;;;;;;;33.99;21.49;100727.06;2250728;85;25747;-84
2021/09/27 10:58:11;;;;;;;7.35;1.00;;;;;;;34.30;21.82;100725.32;2254159;85;25505;-86
2021/09/27 11:02:39;;;;;;;3.07;1.77;;;;;;;34.70;21.57;100721.16;2257377;85;25796;-83
2021/09/27 11:06:51;;;;;;;2.45;1.15;;;;;;;34.87;21.39;100715.02;2252867;86;25798;-84
2021/09/27 11:10:52;;;;;;;10.32;1.00;;;;;;;34.89;21.06;100719.81;2172457;88;25789;-84
2021/09/27 11:14:50;;;;;;;6.22;1.20;;;;;;;34.78;21.19;100719.24;2159804;89;26034;-85
2021/09/27 11:18:58;;;;;;;4.85;0.93;;;;;;;34.89;21.22;100720.67;2166630;89;26103;-86
2021/09/27 11:23:06;;;;;;;2.90;1.12;;;;;;;34.95;21.07;100723.43;2169741;89;25760;-83
2021/09/27 11:38:12;;;;;;;6.17;0.90;;;;;;;33.39;21.10;100705.39;2470481;77;25838;-83
2021/09/27 11:41:37;;;;;;;5.35;0.72;;;;;;;32.19;21.81;100698.63;2523928;77;25575;-84
2021/09/27 11:45:15;;;;;;;8.98;1.80;;;;;;;32.11;22.48;100690.16;2527273;77;26092;-84
2021/09/27 11:48:47;;;;;;;2.08;0.88;;;;;;;32.30;22.88;100691.20;2519704;77;34729;-85
2021/09/27 11:52:12;;;;;;;1.98;0.90;;;;;;;32.80;22.87;100683.98;2513034;77;25676;-85
2021/09/27 11:55:42;;;;;;;2.42;0.80;;;;;;;33.15;22.52;100684.92;2523052;77;25661;-85
2021/09/27 11:59:24;;;;;;;2.95;0.80;;;;;;;33.45;22.48;100679.80;2483370;77;25710;-85
2021/09/27 12:03:13;;;;;;;4.10;0.78;;;;;;;33.35;22.25;100688.52;2480544;79;25606;-85
2021/09/27 12:06:38;;;;;;;3.33;1.10;;;;;;;33.45;22.19;100683.85;2332663;82;25609;-85
2021/09/27 12:10:08;;;;;;;4.15;1.25;;;;;;;33.07;22.13;100674.59;2339564;83;25694;-83
2021/09/27 12:13:43;;;;;;;7.05;0.95;;;;;;;33.10;22.31;100673.54;2346865;83;25825;-84
2021/09/27 12:17:07;;;;;;;3.58;1.05;;;;;;;32.93;22.81;100667.86;2371571;83;26319;-86
2021/09/27 12:20:37;;;;;;;2.70;0.72;;;;;;;33.26;22.83;100659.39;2371023;81;25752;-84
2021/09/27 12:24:22;;;;;;;1.47;1.07;;;;;;;33.36;22.62;100666.41;2369146;81;25748;-84
2021/09/27 12:27:57;;;;;;;1.25;0.70;;;;;;;33.26;22.65;100657.19;2376289;83;25708;-87
2021/09/27 12:31:21;;;;;;;4.83;0.80;;;;;;;33.20;22.57;100665.69;2371852;83;25766;-85
2021/09/27 12:34:48;;;;;;;3.17;0.95;;;;;;;33.18;22.66;100660.41;2367057;83;25729;-86
2021/09/27 12:38:10;;;;;;;1.37;0.90;;;;;;;33.13;22.84;100657.98;2373014;82;25917;-86
2021/09/27 12:41:33;;;;;;;3.75;1.12;;;;;;;33.08;22.94;100660.14;2370821;83;25745;-87
2021/09/27 12:45:09;;;;;;;1.30;0.90;;;;;;;33.04;22.86;100653.22;2486456;77;25571;-86
2021/09/27 12:48:38;;;;;;;5.08;1.22;;;;;;;33.07;22.90;100650.28;2413591;81;25900;-85
2021/09/27 12:52:02;;;;;;;9.40;1.07;;;;;;;33.12;22.70;100659.45;2410071;80;26145;-82
2021/09/27 12:55:28;;;;;;;2.12;1.10;;;;;;;33.08;22.81;100655.23;2418052;80;25697;-86
2021/09/27 12:59:05;;;;;;;2.05;1.10;;;;;;;33.18;22.67;100655.00;2412750;80;25519;-86
2021/09/27 13:02:33;;;;;;;2.45;1.20;;;;;;;33.02;22.88;100645.69;2409714;80;25719;-82
2021/09/27 13:06:17;;;;;;;2.92;0.68;;;;;;;32.97;23.00;100641.06;2416348;81;26068;-86
2021/09/27 13:10:15;;;;;;;7.08;1.65;;;;;;;33.07;23.11;100638.62;2411355;80;25807;-82
2021/09/27 13:13:38;;;;;;;1.72;0.95;;;;;;;33.04;23.21;100634.77;2414263;81;25649;-86
2021/09/27 13:17:20;;;;;;;3.37;1.02;;;;;;;33.05;23.09;100636.52;2415746;80;25834;-87
2021/09/27 13:21:24;;;;;;;1.05;0.70;;;;;;;33.00;23.10;100631.41;2415063;80;25757;-87
2021/09/27 13:24:46;;;;;;;8.88;1.02;;;;;;;32.92;22.70;100631.89;2435999;78;25715;-85
2021/09/27 13:28:41;;;;;;;3.27;0.82;;;;;;;32.67;22.69;100624.54;2502714;77;25623;-87
2021/09/27 13:32:24;;;;;;;3.95;0.65;;;;;;;31.95;22.66;100627.70;2500389;77;25864;-85
2021/09/27 13:36:09;;;;;;;3.72;0.90;;;;;;;31.08;22.62;100618.54;2500291;77;25565;-85
2021/09/27 13:39:45;;;;;;;4.40;0.80;;;;;;;30.66;23.69;100607.91;2500597;77;25798;-83
2021/09/27 13:43:29;;;;;;;3.08;0.57;;;;;;;30.85;24.02;100601.02;2498382;77;25569;-87
2021/09/27 13:46:50;;;;;;;3.22;0.90;;;;;;;30.98;23.51;100609.67;2477428;78;25826;-84
2021/09/27 13:50:11;;;;;;;3.22;0.60;;;;;;;30.80;23.68;100609.36;2480373;78;25616;-85
2021/09/27 13:53:46;;;;;;;7.55;1.75;;;;;;;30.45;23.85;100598.74;2475409;78;25762;-85
2021/09/27 13:57:10;;;;;;;2.92;0.98;;;;;;;30.28;24.61;100602.37;2482431;78;25671;-86
2021/09/27 14:00:35;;;;;;;4.67;1.05;;;;;;;30.21;25.03;100587.52;2474412;78;25686;-86
2021/09/27 14:03:56;;;;;;;4.28;0.80;;;;;;;29.97;25.40;100596.42;2473933;79;25752;-86
2021/09/27 14:07:17;;;;;;;3.72;0.80;;;;;;;29.85;25.71;100588.52;2483812;78;25720;-87
2021/09/27 14:10:38;;;;;;;1.90;1.02;;;;;;;30.14;25.68;100591.47;2476000;78;25708;-86
2021/09/27 14:14:01;;;;;;;2.42;0.82;;;;;;;29.98;25.77;100594.59;2479046;78;26028;-86
2021/09/27 14:17:22;;;;;;;1.12;0.80;;;;;;;29.51;26.23;100593.42;2479803;78;25963;-87
2021/09/27 14:20:46;;;;;;;3.65;0.80;;;;;;;28.87;26.51;100596.17;2486610;77;25791;-86
2021/09/27 14:24:08;;;;;;;2.77;0.98;;;;;;;28.41;27.12;100598.84;2502448;77;25683;-82
2021/09/27 14:27:30;;;;;;;1.82;0.75;;;;;;;27.61;27.71;100593.03;2498336;78;25685;-83
2021/09/27 14:30:51;;;;;;;14.15;0.98;;;;;;;27.10;28.28;100594.29;2502310;77;25549;-85
2021/09/27 14:34:13;;;;;;;3.47;0.90;;;;;;;26.87;28.70;100598.38;2499391;77;25612;-87
2021/09/27 14:37:34;;;;;;;5.20;0.70;;;;;;;26.47;29.31;100594.13;2501772;77;25155;-87
2021/09/27 14:40:55;;;;;;;5.45;0.82;;;;;;;26.18;29.84;100591.66;2502279;77;25787;-83
2021/09/27 14:44:16;;;;;;;6.75;0.90;;;;;;;25.66;30.04;100590.41;2501124;77;25556;-87
2021/09/27 14:47:39;;;;;;;2.27;0.80;;;;;;;25.40;30.74;100598.84;2502552;77;25643;-83
2021/09/27 14:51:00;;;;;;;7.25;0.90;;;;;;;25.17;30.97;100591.61;2501552;77;25579;-83
2021/09/27 14:54:21;;;;;;;1.42;0.57;;;;;;;24.93;31.28;100603.93;2502115;78;25655;-85
2021/09/27 14:57:43;;;;;;;8.38;0.60;;;;;;;24.46;31.68;100595.63;2502506;77;25600;-87
2021/09/27 15:01:07;;;;;;;1.05;0.60;;;;;;;24.14;32.22;100591.70;2498888;77;25818;-84
2021/09/27 15:04:30;;;;;;;2.37;0.80;;;;;;;23.96;32.64;100605.96;2501054;77;25572;-85
2021/09/27 15:07:52;;;;;;;3.00;0.75;;;;;;;23.75;32.87;100606.53;2498424;78;25747;-86
2021/09/27 15:11:13;;;;;;;5.62;1.35;;;;;;;23.43;33.33;100612.23;2498721;78;25782;-84
2021/09/27 15:14:35;;;;;;;2.52;0.70;;;;;;;23.12;33.77;100621.87;2499948;77;25593;-85
2021/09/27 15:17:57;;;;;;;5.97;0.62;;;;;;;22.92;34.42;100614.36;2501435;77;26316;-86
2021/09/27 15:21:28;;;;;;;1.25;0.78;;;;;;;22.76;34.55;100610.72;2499124;77;25763;-87
2021/09/27 15:24:49;;;;;;;3.27;0.50;;;;;;;22.65;35.06;100610.09;2499814;77;26282;-85
2021/09/27 15:28:23;;;;;;;1.67;0.60;;;;;;;22.31;35.13;100608.17;2498105;77;25663;-82
2021/09/27 15:32:01;;;;;;;3.25;0.50;;;;;;;22.12;35.50;100605.44;2489082;77;25616;-80
2021/09/27 15:35:22;;;;;;;3.47;0.60;;;;;;;21.95;36.00;100601.80;2493305;77;25783;-79
2021/09/27 15:38:50;;;;;;;3.60;0.80;;;;;;;21.91;36.22;100600.98;2488455;78;25704;-81
2021/09/27 15:42:12;;;;;;;2.08;0.47;;;;;;;21.86;36.41;100600.19;2502794;77;25658;-84
2021/09/27 15:45:33;;;;;;;2.52;0.98;;;;;;;21.70;36.70;100606.72;2466709;78;26430;-82
2021/09/27 15:48:57;;;;;;;5.37;0.90;;;;;;;21.55;36.90;100595.91;2464877;78;26048;-80
2021/09/27 15:52:18;;;;;;;2.87;0.98;;;;;;;21.34;37.30;100603.80;2464435;77;26526;-84
2021/09/27 15:55:39;;;;;;;5.28;0.90;;;;;;;21.32;37.59;100604.69;2488119;77;25642;-83
2021/09/27 15:59:07;;;;;;;1.87;1.32;;;;;;;21.32;38.19;100604.23;2470724;78;25663;-81
2021/09/27 16:02:28;;;;;;;3.85;0.90;;;;;;;21.21;38.32;100599.11;2446763;79;25622;-85
2021/09/27 16:05:49;;;;;;;6.80;2.37;;;;;;;21.20;38.66;100600.48;2456393;79;26059;-84
2021/09/27 16:09:10;;;;;;;4.60;1.50;;;;;;;21.12;39.05;100605.89;2450142;78;25866;-82
2021/09/27 16:12:31;;;;;;;3.90;1.55;;;;;;;21.01;39.44;100603.00;2456142;79;25546;-87
2021/09/27 16:15:53;;;;;;;3.15;0.98;;;;;;;20.93;39.71;100604.00;2475711;77;25972;-84
2021/09/27 16:19:17;;;;;;;4.95;1.32;;;;;;;20.87;40.19;100606.73;2497363;78;25708;-85
2021/09/27 16:22:38;;;;;;;2.08;1.12;;;;;;;20.82;40.34;100610.34;2499673;77;25791;-84
2021/09/27 16:25:59;;;;;;;3.80;1.87;;;;;;;20.79;40.82;100613.03;2500605;77;25688;-81
2021/09/27 16:29:25;;;;;;;7.15;1.70;;;;;;;20.79;41.02;100616.59;2503350;77;25674;-81
2021/09/27 16:32:46;;;;;;;2.30;1.22;;;;;;;20.67;41.23;100616.30;2467070;78;26469;-85
2021/09/27 16:36:07;;;;;;;4.22;1.57;;;;;;;20.54;41.52;100616.48;2456036;79;25186;-81
2021/09/27 16:39:30;;;;;;;2.85;2.25;;;;;;;20.53;41.84;100609.00;2463852;78;25795;-79
2021/09/27 16:42:52;;;;;;;7.87;1.67;;;;;;;20.63;41.94;100615.05;2468965;78;25688;-78
2021/09/27 16:46:14;;;;;;;7.12;1.80;;;;;;;20.51;41.98;100624.02;2455711;79;25790;-81
2021/09/27 16:49:38;;;;;;;2.67;1.90;;;;;;;20.42;42.19;100618.84;2453412;79;25762;-84
2021/09/27 16:52:59;;;;;;;2.85;1.70;;;;;;;20.27;42.55;100626.05;2455456;79;25782;-85
2021/09/27 16:56:20;;;;;;;4.55;2.22;;;;;;;20.20;42.67;100622.19;2455709;79;25769;-89
2021/09/27 16:59:45;;;;;;;4.22;2.17;;;;;;;20.12;42.77;100622.73;2456076;79;25699;-90
2021/09/27 17:03:04;;;;;;;5.30;2.10;;;;;;;20.01;42.93;100632.09;2452466;79;25835;-88